Time;durP1;ratioP1;P1;durP2;ratioP2;P2;SDS_P1;SDS_P2;PMS_P1;PMS_P2;Temp;Humidity;BMP_temperature;BMP_pressure;BME280_temperature;BME280_humidity;BME280_pressure;Samples;Min_cycle;Max_cycle;Signal;HPM_P1;HPM_P2
2023/06/13 00:00:59;;;;;;;;;;;;;;;;;;5091549;28;19920;-60
2023/06/13 00:03:29;;;;;;;;;;;;;;;;;;5091179;28;20314;-61
2023/06/13 00:05:55;;;;;;;;;;;;;;;;;;5091664;28;19977;-60
2023/06/13 00:08:21;;;;;;;;;;;;;;;;;;5073683;28;19920;-61
2023/06/13 00:10:47;;;;;;;;;;;;;;;;;;5090952;28;19927;-60
2023/06/13 00:13:14;;;;;;;;;;;;;;;;;;5091583;28;19968;-60
2023/06/13 00:15:40;;;;;;;;;;;;;;;;;;5091652;28;20274;-60
2023/06/13 00:18:06;;;;;;;;;;;;;;;;;;5091146;28;19931;-60
2023/06/13 00:20:34;;;;;;;;;;;;;;;;;;5091473;28;20359;-60
2023/06/13 00:23:03;;;;;;;;;;;;;;;;;;5091209;28;20015;-60
2023/06/13 00:25:29;;;;;;;;;;;;;;;;;;5086093;28;19925;-60
2023/06/13 00:27:55;;;;;;;;;;;;;;;;;;5071208;28;19931;-61
2023/06/13 00:30:21;;;;;;;;;;;;;;;;;;5082886;28;19920;-60
2023/06/13 00:32:47;;;;;;;;;;;;;;;;;;5090731;28;19989;-60
2023/06/13 00:35:13;;;;;;;;;;;;;;;;;;5090788;28;19969;-61
2023/06/13 00:37:40;;;;;;;;;;;;;;;;;;5073122;28;19928;-61
2023/06/13 00:40:06;;;;;;;;;;;;;;;;;;5090647;28;19996;-60
2023/06/13 00:42:32;;;;;;;;;;;;;;;;;;5073076;28;20401;-60
2023/06/13 00:44:58;;;;;;;;;;;;;;;;;;5090943;28;19928;-60
2023/06/13 00:47:26;;;;;;;;;;;;;;;;;;5090583;28;19940;-60
2023/06/13 00:49:53;;;;;;;;;;;;;;;;;;5091069;28;19927;-60
2023/06/13 00:52:19;;;;;;;;;;;;;;;;;;5091157;28;19920;-60
2023/06/13 00:54:45;;;;;;;;;;;;;;;;;;5090324;28;19927;-60
2023/06/13 00:57:12;;;;;;;;;;;;;;;;;;5091013;28;19920;-60
2023/06/13 00:59:38;;;;;;;;;;;;;;;;;;5090947;28;19924;-60
2023/06/13 01:02:04;;;;;;;;;;;;;;;;;;5090359;28;19946;-60
2023/06/13 01:04:34;;;;;;;;;;;;;;;;;;5090624;28;19932;-60
2023/06/13 01:07:00;;;;;;;;;;;;;;;;;;5090792;28;19928;-60
2023/06/13 01:09:26;;;;;;;;;;;;;;;;;;5090491;28;20358;-60
2023/06/13 01:11:52;;;;;;;;;;;;;;;;;;5090981;28;19920;-60
2023/06/13 01:14:20;;;;;;;;;;;;;;;;;;5090754;28;19993;-60
2023/06/13 01:16:47;;;;;;;;;;;;;;;;;;5090235;28;19924;-60
2023/06/13 01:19:13;;;;;;;;;;;;;;;;;;5090534;28;20451;-60
2023/06/13 01:21:39;;;;;;;;;;;;;;;;;;5090828;28;19933;-60
2023/06/13 01:24:05;;;;;;;;;;;;;;;;;;5090179;28;19924;-60
2023/06/13 01:26:33;;;;;;;;;;;;;;;;;;5077495;28;19941;-60
2023/06/13 01:28:59;;;;;;;;;;;;;;;;;;5070840;28;20053;-60
2023/06/13 01:31:25;;;;;;;;;;;;;;;;;;5090216;28;20398;-60
2023/06/13 01:33:51;;;;;;;;;;;;;;;;;;5090524;28;20486;-60
2023/06/13 01:36:17;;;;;;;;;;;;;;;;;;5090201;28;19927;-60
2023/06/13 01:38:43;;;;;;;;;;;;;;;;;;5090037;28;19924;-60
2023/06/13 01:41:09;;;;;;;;;;;;;;;;;;5090517;28;19920;-60
2023/06/13 01:43:35;;;;;;;;;;;;;;;;;;5089975;28;19943;-60
2023/06/13 01:46:02;;;;;;;;;;;;;;;;;;5089922;28;19931;-60
2023/06/13 01:48:27;;;;;;;;;;;;;;;;;;5090535;28;20305;-60
2023/06/13 01:50:53;;;;;;;;;;;;;;;;;;5090292;28;19973;-60
2023/06/13 01:53:19;;;;;;;;;;;;;;;;;;5089768;28;19955;-60
2023/06/13 01:55:46;;;;;;;;;;;;;;;;;;5090407;28;19924;-60
2023/06/13 01:58:12;;;;;;;;;;;;;;;;;;5090003;28;19971;-60
2023/06/13 02:00:38;;;;;;;;;;;;;;;;;;5071588;28;19986;-60
2023/06/13 02:03:04;;;;;;;;;;;;;;;;;;5093883;28;19957;-60
2023/06/13 02:05:30;;;;;;;;;;;;;;;;;;5094016;28;19951;-60
2023/06/13 02:07:56;;;;;;;;;;;;;;;;;;5093591;28;19995;-61
2023/06/13 02:10:22;;;;;;;;;;;;;;;;;;5075671;28;19924;-61
2023/06/13 02:12:48;;;;;;;;;;;;;;;;;;5094108;28;19939;-61
2023/06/13 02:15:14;;;;;;;;;;;;;;;;;;5093389;28;19920;-61
2023/06/13 02:17:40;;;;;;;;;;;;;;;;;;5093839;28;19950;-60
2023/06/13 02:20:06;;;;;;;;;;;;;;;;;;5093903;28;19930;-60
2023/06/13 02:22:32;;;;;;;;;;;;;;;;;;5093320;28;20367;-60
2023/06/13 02:25:03;;;;;;;;;;;;;;;;;;5092956;28;19975;-60
2023/06/13 02:27:29;;;;;;;;;;;;;;;;;;5073358;28;19928;-60
2023/06/13 02:29:55;;;;;;;;;;;;;;;;;;5081335;28;19920;-60
2023/06/13 02:32:22;;;;;;;;;;;;;;;;;;5093641;28;19924;-60
2023/06/13 02:34:49;;;;;;;;;;;;;;;;;;5093470;28;19960;-62
2023/06/13 02:37:15;;;;;;;;;;;;;;;;;;5093034;28;20014;-61
2023/06/13 02:39:41;;;;;;;;;;;;;;;;;;5075094;28;20019;-60
2023/06/13 02:42:07;;;;;;;;;;;;;;;;;;5093405;28;19928;-60
2023/06/13 02:44:33;;;;;;;;;;;;;;;;;;5093205;28;19935;-60
2023/06/13 02:46:59;;;;;;;;;;;;;;;;;;5092749;28;19946;-60
2023/06/13 02:49:25;;;;;;;;;;;;;;;;;;5093033;28;19920;-60
2023/06/13 02:51:51;;;;;;;;;;;;;;;;;;5093165;28;20329;-60
2023/06/13 02:54:18;;;;;;;;;;;;;;;;;;5092129;28;19927;-60
2023/06/13 02:56:44;;;;;;;;;;;;;;;;;;5093039;28;20025;-60
2023/06/13 02:59:10;;;;;;;;;;;;;;;;;;5075056;28;20444;-60
2023/06/13 03:01:36;;;;;;;;;;;;;;;;;;5092346;28;19955;-60
2023/06/13 03:04:02;;;;;;;;;;;;;;;;;;5092732;28;19971;-60
2023/06/13 03:06:31;;;;;;;;;;;;;;;;;;5092749;28;19920;-60
2023/06/13 03:08:58;;;;;;;;;;;;;;;;;;5092418;28;19924;-60
2023/06/13 03:11:24;;;;;;;;;;;;;;;;;;5092839;28;19924;-60
2023/06/13 03:13:50;;;;;;;;;;;;;;;;;;5091578;28;19924;-60
2023/06/13 03:16:17;;;;;;;;;;;;;;;;;;5092440;28;20476;-60
2023/06/13 03:18:43;;;;;;;;;;;;;;;;;;5092732;28;19920;-60
2023/06/13 03:21:09;;;;;;;;;;;;;;;;;;5092660;28;19927;-60
2023/06/13 03:23:35;;;;;;;;;;;;;;;;;;5091914;28;19920;-60
2023/06/13 03:26:03;;;;;;;;;;;;;;;;;;5083380;28;19928;-60
2023/06/13 03:28:29;;;;;;;;;;;;;;;;;;5072322;28;19920;-60
2023/06/13 03:30:55;;;;;;;;;;;;;;;;;;5088384;28;19931;-60
2023/06/13 03:33:22;;;;;;;;;;;;;;;;;;5091994;28;20007;-60
2023/06/13 03:35:48;;;;;;;;;;;;;;;;;;5092303;28;19924;-60
2023/06/13 03:38:14;;;;;;;;;;;;;;;;;;5091831;28;19919;-60
2023/06/13 03:40:42;;;;;;;;;;;;;;;;;;5091464;28;20379;-60
2023/06/13 03:43:07;;;;;;;;;;;;;;;;;;5074045;28;19926;-60
2023/06/13 03:45:34;;;;;;;;;;;;;;;;;;5091551;28;19928;-60
2023/06/13 03:48:00;;;;;;;;;;;;;;;;;;5092099;28;19924;-60
2023/06/13 03:50:26;;;;;;;;;;;;;;;;;;5091954;28;19924;-60
2023/06/13 03:52:52;;;;;;;;;;;;;;;;;;5091367;28;19920;-60
2023/06/13 03:55:18;;;;;;;;;;;;;;;;;;5091810;28;19920;-60
2023/06/13 03:57:45;;;;;;;;;;;;;;;;;;5073811;28;20010;-60
2023/06/13 04:00:11;;;;;;;;;;;;;;;;;;5091030;28;19924;-60
2023/06/13 04:02:37;;;;;;;;;;;;;;;;;;5091718;28;19920;-60
2023/06/13 04:05:03;;;;;;;;;;;;;;;;;;5091568;28;19928;-60
2023/06/13 04:07:33;;;;;;;;;;;;;;;;;;5091434;28;19931;-60
2023/06/13 04:09:59;;;;;;;;;;;;;;;;;;5091860;28;20453;-60
2023/06/13 04:12:25;;;;;;;;;;;;;;;;;;5091700;28;20094;-60
2023/06/13 04:14:51;;;;;;;;;;;;;;;;;;5091138;28;19928;-60
2023/06/13 04:17:17;;;;;;;;;;;;;;;;;;5091615;28;19981;-60
2023/06/13 04:19:43;;;;;;;;;;;;;;;;;;5073141;28;19920;-60
2023/06/13 04:22:09;;;;;;;;;;;;;;;;;;5090967;28;19993;-60
2023/06/13 04:24:36;;;;;;;;;;;;;;;;;;5090787;28;19924;-60
2023/06/13 04:27:03;;;;;;;;;;;;;;;;;;5074269;28;20019;-60
2023/06/13 04:29:29;;;;;;;;;;;;;;;;;;5074818;28;19931;-60
2023/06/13 04:31:56;;;;;;;;;;;;;;;;;;5072696;28;19923;-60
2023/06/13 04:34:24;;;;;;;;;;;;;;;;;;5090941;28;20309;-60
2023/06/13 04:36:55;;;;;;;;;;;;;;;;;;5090322;28;19946;-60
2023/06/13 04:39:21;;;;;;;;;;;;;;;;;;5091003;28;19928;-60
2023/06/13 04:41:48;;;;;;;;;;;;;;;;;;5091071;28;19927;-60
2023/06/13 04:44:14;;;;;;;;;;;;;;;;;;5090283;28;19936;-60
2023/06/13 04:46:43;;;;;;;;;;;;;;;;;;5091027;28;19935;-60
2023/06/13 04:49:09;;;;;;;;;;;;;;;;;;5091009;28;19924;-60
2023/06/13 04:51:35;;;;;;;;;;;;;;;;;;5090422;28;19939;-60
2023/06/13 04:54:01;;;;;;;;;;;;;;;;;;5090501;28;20013;-60
2023/06/13 04:56:27;;;;;;;;;;;;;;;;;;5090977;28;19981;-60
2023/06/13 04:58:53;;;;;;;;;;;;;;;;;;5072031;28;19955;-60
2023/06/13 05:01:19;;;;;;;;;;;;;;;;;;5090901;28;19920;-60
2023/06/13 05:03:51;;;;;;;;;;;;;;;;;;5090376;28;19970;-60
2023/06/13 05:06:17;;;;;;;;;;;;;;;;;;5090213;28;19928;-60
2023/06/13 05:08:43;;;;;;;;;;;;;;;;;;5057367;28;19938;-61
2023/06/13 05:11:09;;;;;;;;;;;;;;;;;;5090170;28;19920;-61
2023/06/13 05:13:35;;;;;;;;;;;;;;;;;;5054523;28;19924;-61
2023/06/13 05:16:01;;;;;;;;;;;;;;;;;;5072264;28;19924;-61
2023/06/13 05:18:29;;;;;;;;;;;;;;;;;;5090406;28;19928;-61
2023/06/13 05:20:56;;;;;;;;;;;;;;;;;;5089728;28;19924;-61
2023/06/13 05:23:22;;;;;;;;;;;;;;;;;;5089952;28;19919;-61
2023/06/13 05:25:48;;;;;;;;;;;;;;;;;;5085677;28;19932;-60
2023/06/13 05:28:16;;;;;;;;;;;;;;;;;;5089852;28;19920;-61
2023/06/13 05:30:42;;;;;;;;;;;;;;;;;;5090264;28;19920;-61
2023/06/13 05:33:08;;;;;;;;;;;;;;;;;;5090311;28;19924;-61
2023/06/13 05:35:34;;;;;;;;;;;;;;;;;;5089650;28;19924;-61
2023/06/13 05:38:00;;;;;;;;;;;;;;;;;;5093721;28;19924;-61
2023/06/13 05:40:26;;;;;;;;;;;;;;;;;;5094380;28;19970;-61
2023/06/13 05:42:52;;;;;;;;;;;;;;;;;;5093610;28;19924;-61
2023/06/13 05:45:18;;;;;;;;;;;;;;;;;;5093994;28;19963;-61
2023/06/13 05:47:44;;;;;;;;;;;;;;;;;;5075629;28;19943;-61
2023/06/13 05:50:10;;;;;;;;;;;;;;;;;;5089946;28;19920;-60
2023/06/13 05:52:36;;;;;;;;;;;;;;;;;;5094202;28;20455;-61
2023/06/13 05:55:04;;;;;;;;;;;;;;;;;;5093669;28;20006;-61
2023/06/13 05:57:30;;;;;;;;;;;;;;;;;;5092927;28;19924;-61
2023/06/13 05:59:55;;;;;;;;;;;;;;;;;;5093602;28;19920;-61
2023/06/13 06:02:21;;;;;;;;;;;;;;;;;;5093545;28;19924;-60
2023/06/13 06:04:47;;;;;;;;;;;;;;;;;;5093186;28;20009;-62
2023/06/13 06:07:13;;;;;;;;;;;;;;;;;;5093748;28;19923;-61
2023/06/13 06:09:39;;;;;;;;;;;;;;;;;;5093825;28;19943;-61
2023/06/13 06:12:05;;;;;;;;;;;;;;;;;;5073048;28;20035;-61
2023/06/13 06:14:31;;;;;;;;;;;;;;;;;;5080063;28;19996;-61
2023/06/13 06:16:57;;;;;;;;;;;;;;;;;;5093350;28;19931;-61
2023/06/13 06:19:23;;;;;;;;;;;;;;;;;;5060440;28;19931;-61
2023/06/13 06:21:49;;;;;;;;;;;;;;;;;;5073989;28;19921;-60
2023/06/13 06:24:15;;;;;;;;;;;;;;;;;;5093076;28;19931;-60
2023/06/13 06:26:41;;;;;;;;;;;;;;;;;;5092501;28;19928;-61
2023/06/13 06:29:07;;;;;;;;;;;;;;;;;;5092973;28;19931;-61
2023/06/13 06:31:33;;;;;;;;;;;;;;;;;;5093225;28;19977;-61
2023/06/13 06:33:59;;;;;;;;;;;;;;;;;;5092862;28;19927;-61
2023/06/13 06:36:25;;;;;;;;;;;;;;;;;;5092774;28;19955;-59
2023/06/13 06:38:51;;;;;;;;;;;;;;;;;;5075707;28;19928;-58
2023/06/13 06:41:17;;;;;;;;;;;;;;;;;;5091995;28;19920;-57
2023/06/13 06:43:43;;;;;;;;;;;;;;;;;;5091346;28;19924;-57
2023/06/13 06:46:09;;;;;;;;;;;;;;;;;;5092088;28;19921;-57
2023/06/13 06:48:35;;;;;;;;;;;;;;;;;;5073243;28;20450;-56
2023/06/13 06:51:01;;;;;;;;;;;;;;;;;;5067698;28;19980;-57
2023/06/13 06:53:27;;;;;;;;;;;;;;;;;;5090832;28;19920;-57
2023/06/13 06:55:53;;;;;;;;;;;;;;;;;;5086708;28;19969;-56
2023/06/13 06:58:18;;;;;;;;;;;;;;;;;;5091718;28;19924;-57
2023/06/13 07:00:44;;;;;;;;;;;;;;;;;;5086934;28;19943;-57
2023/06/13 07:03:10;;;;;;;;;;;;;;;;;;5091966;28;19965;-58
2023/06/13 07:05:36;;;;;;;;;;;;;;;;;;5056081;28;19928;-57
2023/06/13 07:08:02;;;;;;;;;;;;;;;;;;5091663;28;19924;-58
2023/06/13 07:10:28;;;;;;;;;;;;;;;;;;5091546;28;19920;-57
2023/06/13 07:12:54;;;;;;;;;;;;;;;;;;5086682;28;19931;-58
2023/06/13 07:15:22;;;;;;;;;;;;;;;;;;5091280;28;19963;-58
2023/06/13 07:17:48;;;;;;;;;;;;;;;;;;5073740;28;19927;-56
2023/06/13 07:20:14;;;;;;;;;;;;;;;;;;5085942;28;19924;-58
2023/06/13 07:22:40;;;;;;;;;;;;;;;;;;5091478;28;19924;-58
2023/06/13 07:25:06;;;;;;;;;;;;;;;;;;5091164;28;20365;-59
2023/06/13 07:27:32;;;;;;;;;;;;;;;;;;5084018;28;20020;-59
2023/06/13 07:29:58;;;;;;;;;;;;;;;;;;5074465;28;19942;-58
2023/06/13 07:32:24;;;;;;;;;;;;;;;;;;5076023;28;19920;-57
2023/06/13 07:34:50;;;;;;;;;;;;;;;;;;5081583;28;19923;-58
2023/06/13 07:37:16;;;;;;;;;;;;;;;;;;5083252;28;19963;-58
2023/06/13 07:39:42;;;;;;;;;;;;;;;;;;5052928;28;19928;-57
2023/06/13 07:42:08;;;;;;;;;;;;;;;;;;5086869;28;19993;-57
2023/06/13 07:44:34;;;;;;;;;;;;;;;;;;5083397;28;20401;-59
2023/06/13 07:47:00;;;;;;;;;;;;;;;;;;5084981;28;19931;-60
2023/06/13 07:49:26;;;;;;;;;;;;;;;;;;5087195;28;19924;-59
2023/06/13 07:51:52;;;;;;;;;;;;;;;;;;5085560;28;19924;-57
2023/06/13 07:54:18;;;;;;;;;;;;;;;;;;5073650;28;19924;-58
2023/06/13 07:56:44;;;;;;;;;;;;;;;;;;5077243;28;19989;-59
2023/06/13 07:59:10;;;;;;;;;;;;;;;;;;5081166;28;20286;-58
2023/06/13 08:01:36;;;;;;;;;;;;;;;;;;5071425;28;19921;-58
2023/06/13 08:04:02;;;;;;;;;;;;;;;;;;5082522;28;20042;-58
2023/06/13 08:06:28;;;;;;;;;;;;;;;;;;5089610;28;19997;-59
2023/06/13 08:08:54;;;;;;;;;;;;;;;;;;5075005;28;19925;-58
2023/06/13 08:11:20;;;;;;;;;;;;;;;;;;5060379;28;19985;-58
2023/06/13 08:13:46;;;;;;;;;;;;;;;;;;5080374;28;19998;-58
2023/06/13 08:16:12;;;;;;;;;;;;;;;;;;5089776;28;19924;-60
2023/06/13 08:18:39;;;;;;;;;;;;;;;;;;5084912;28;19951;-60
2023/06/13 08:21:04;;;;;;;;;;;;;;;;;;5077497;28;19932;-58
2023/06/13 08:23:30;;;;;;;;;;;;;;;;;;5079426;28;19924;-56
2023/06/13 08:25:56;;;;;;;;;;;;;;;;;;5073815;28;19925;-58
2023/06/13 08:28:23;;;;;;;;;;;;;;;;;;5084505;28;19993;-60
2023/06/13 08:30:49;;;;;;;;;;;;;;;;;;5083344;28;20327;-59
2023/06/13 08:33:15;;;;;;;;;;;;;;;;;;5086878;28;20001;-57
2023/06/13 08:35:41;;;;;;;;;;;;;;;;;;5086566;28;19935;-58
2023/06/13 08:38:07;;;;;;;;;;;;;;;;;;5072776;28;19961;-60
2023/06/13 08:40:33;;;;;;;;;;;;;;;;;;5079672;28;19927;-60
2023/06/13 08:43:00;;;;;;;;;;;;;;;;;;5088558;28;20291;-60
2023/06/13 08:45:26;;;;;;;;;;;;;;;;;;5068978;28;19982;-60
2023/06/13 08:47:52;;;;;;;;;;;;;;;;;;5081478;28;20632;-58
2023/06/13 08:50:18;;;;;;;;;;;;;;;;;;5073245;28;19920;-59
2023/06/13 08:52:45;;;;;;;;;;;;;;;;;;5076863;28;19931;-59
2023/06/13 08:55:11;;;;;;;;;;;;;;;;;;5080575;28;19924;-60
2023/06/13 08:57:37;;;;;;;;;;;;;;;;;;5082496;28;19932;-60
2023/06/13 09:00:06;;;;;;;;;;;;;;;;;;5075238;28;19924;-61
2023/06/13 09:02:32;;;;;;;;;;;;;;;;;;5072460;28;19927;-61
2023/06/13 09:04:58;;;;;;;;;;;;;;;;;;5082069;28;19933;-60
2023/06/13 09:07:24;;;;;;;;;;;;;;;;;;5086769;28;19924;-60
2023/06/13 09:09:50;;;;;;;;;;;;;;;;;;5088478;28;19931;-62
2023/06/13 09:12:16;;;;;;;;;;;;;;;;;;5083682;28;19923;-62
2023/06/13 09:14:42;;;;;;;;;;;;;;;;;;5084018;28;20002;-60
2023/06/13 09:17:08;;;;;;;;;;;;;;;;;;5076746;28;19925;-59
2023/06/13 09:19:34;;;;;;;;;;;;;;;;;;5075353;28;19920;-60
2023/06/13 09:22:00;;;;;;;;;;;;;;;;;;5080669;28;19949;-61
2023/06/13 09:24:26;;;;;;;;;;;;;;;;;;5074916;28;19924;-61
2023/06/13 09:26:52;;;;;;;;;;;;;;;;;;5073340;28;19935;-59
2023/06/13 09:29:18;;;;;;;;;;;;;;;;;;5079272;28;19920;-60
2023/06/13 09:31:44;;;;;;;;;;;;;;;;;;5084521;28;19924;-60
2023/06/13 09:34:10;;;;;;;;;;;;;;;;;;5070740;28;20019;-59
2023/06/13 09:36:37;;;;;;;;;;;;;;;;;;5080020;28;20034;-59
2023/06/13 09:39:03;;;;;;;;;;;;;;;;;;5056652;28;20283;-56
2023/06/13 09:41:31;;;;;;;;;;;;;;;;;;5077136;28;19920;-59
2023/06/13 09:43:57;;;;;;;;;;;;;;;;;;5084130;28;20614;-59
2023/06/13 09:46:26;;;;;;;;;;;;;;;;;;5084481;28;19924;-59
2023/06/13 09:48:52;;;;;;;;;;;;;;;;;;5077324;28;19925;-59
2023/06/13 09:51:18;;;;;;;;;;;;;;;;;;5080796;28;19939;-59
2023/06/13 09:53:43;;;;;;;;;;;;;;;;;;5074371;28;19920;-58
2023/06/13 09:56:10;;;;;;;;;;;;;;;;;;5080284;28;19978;-59
2023/06/13 09:58:36;;;;;;;;;;;;;;;;;;5061987;28;19929;-58
2023/06/13 10:01:03;;;;;;;;;;;;;;;;;;5071310;28;20367;-59
2023/06/13 10:03:29;;;;;;;;;;;;;;;;;;5084806;28;20355;-59
2023/06/13 10:05:55;;;;;;;;;;;;;;;;;;5085744;28;19934;-56
2023/06/13 10:08:21;;;;;;;;;;;;;;;;;;5080394;28;19924;-58
2023/06/13 10:10:47;;;;;;;;;;;;;;;;;;5083464;28;19931;-55
2023/06/13 10:13:13;;;;;;;;;;;;;;;;;;5080311;28;19924;-59
2023/06/13 10:15:39;;;;;;;;;;;;;;;;;;5080386;28;19924;-55
2023/06/13 10:18:05;;;;;;;;;;;;;;;;;;5078128;28;20015;-58
2023/06/13 10:20:31;;;;;;;;;;;;;;;;;;5084733;28;20015;-56
2023/06/13 10:22:57;;;;;;;;;;;;;;;;;;5078094;28;19956;-57
2023/06/13 10:25:23;;;;;;;;;;;;;;;;;;5079914;28;20015;-59
2023/06/13 10:27:50;;;;;;;;;;;;;;;;;;5081788;28;20902;-58
2023/06/13 10:30:16;;;;;;;;;;;;;;;;;;5085169;28;20358;-60
2023/06/13 10:32:42;;;;;;;;;;;;;;;;;;5086725;28;19928;-59
2023/06/13 10:35:08;;;;;;;;;;;;;;;;;;5062712;28;19966;-58
2023/06/13 10:37:34;;;;;;;;;;;;;;;;;;5078720;28;19982;-58
2023/06/13 10:40:00;;;;;;;;;;;;;;;;;;5079220;28;20338;-57
2023/06/13 10:42:27;;;;;;;;;;;;;;;;;;5090644;28;19973;-56
2023/06/13 10:44:53;;;;;;;;;;;;;;;;;;5091162;28;20019;-56
2023/06/13 10:47:19;;;;;;;;;;;;;;;;;;5091235;28;20293;-57
2023/06/13 10:49:45;;;;;;;;;;;;;;;;;;5080381;28;19927;-58
2023/06/13 10:52:11;;;;;;;;;;;;;;;;;;5074753;28;19928;-56
2023/06/13 10:54:37;;;;;;;;;;;;;;;;;;5085477;28;19970;-59
2023/06/13 10:57:03;;;;;;;;;;;;;;;;;;5085532;28;19924;-58
2023/06/13 10:59:28;;;;;;;;;;;;;;;;;;5084681;28;20372;-58
2023/06/13 11:01:54;;;;;;;;;;;;;;;;;;5076163;28;19928;-57
2023/06/13 11:04:21;;;;;;;;;;;;;;;;;;5086208;28;19950;-57
2023/06/13 11:06:46;;;;;;;;;;;;;;;;;;5093820;28;19946;-58
2023/06/13 11:09:12;;;;;;;;;;;;;;;;;;5082644;28;19920;-57
2023/06/13 11:11:38;;;;;;;;;;;;;;;;;;5075474;28;19927;-57
2023/06/13 11:14:04;;;;;;;;;;;;;;;;;;5083031;28;19982;-58
2023/06/13 11:16:30;;;;;;;;;;;;;;;;;;5087561;28;19925;-58
2023/06/13 11:18:56;;;;;;;;;;;;;;;;;;5084091;28;20704;-58
2023/06/13 11:21:22;;;;;;;;;;;;;;;;;;5091221;28;20024;-58
2023/06/13 11:23:49;;;;;;;;;;;;;;;;;;5085144;28;19943;-59
2023/06/13 11:26:15;;;;;;;;;;;;;;;;;;5069201;28;20011;-57
2023/06/13 11:28:41;;;;;;;;;;;;;;;;;;5091021;28;20011;-58
2023/06/13 11:31:07;;;;;;;;;;;;;;;;;;5078054;28;19947;-58
2023/06/13 11:33:33;;;;;;;;;;;;;;;;;;5082254;28;19924;-57
2023/06/13 11:35:59;;;;;;;;;;;;;;;;;;5090767;28;19924;-59
2023/06/13 11:38:25;;;;;;;;;;;;;;;;;;5090713;28;20037;-58
2023/06/13 11:40:51;;;;;;;;;;;;;;;;;;5077586;28;19982;-59
2023/06/13 11:43:17;;;;;;;;;;;;;;;;;;5090869;28;19920;-58
2023/06/13 11:45:43;;;;;;;;;;;;;;;;;;5089847;28;20014;-58
2023/06/13 11:48:11;;;;;;;;;;;;;;;;;;5085298;28;19931;-59
2023/06/13 11:50:37;;;;;;;;;;;;;;;;;;5081113;28;19951;-57
2023/06/13 11:53:03;;;;;;;;;;;;;;;;;;5066775;28;20413;-56
2023/06/13 11:55:29;;;;;;;;;;;;;;;;;;5083409;28;20001;-58
2023/06/13 11:57:56;;;;;;;;;;;;;;;;;;5089148;28;19924;-58
2023/06/13 12:00:26;;;;;;;;;;;;;;;;;;5090185;28;19920;-58
2023/06/13 12:02:52;;;;;;;;;;;;;;;;;;5090625;28;19928;-58
2023/06/13 12:05:18;;;;;;;;;;;;;;;;;;5080937;28;20010;-56
2023/06/13 12:07:45;;;;;;;;;;;;;;;;;;5089122;28;20008;-58
2023/06/13 12:10:11;;;;;;;;;;;;;;;;;;5074564;28;20281;-58
2023/06/13 12:12:37;;;;;;;;;;;;;;;;;;5066978;28;19937;-58
2023/06/13 12:15:03;;;;;;;;;;;;;;;;;;5078793;28;19933;-58
2023/06/13 12:17:29;;;;;;;;;;;;;;;;;;5089325;28;19920;-58
2023/06/13 12:19:55;;;;;;;;;;;;;;;;;;5089989;28;19924;-58
2023/06/13 12:22:21;;;;;;;;;;;;;;;;;;5075976;28;19924;-59
2023/06/13 12:24:47;;;;;;;;;;;;;;;;;;5082341;28;19959;-58
2023/06/13 12:27:13;;;;;;;;;;;;;;;;;;5083886;28;19927;-59
2023/06/13 12:29:39;;;;;;;;;;;;;;;;;;5089019;28;19924;-59
2023/06/13 12:32:06;;;;;;;;;;;;;;;;;;5081302;28;20059;-58
2023/06/13 12:34:36;;;;;;;;;;;;;;;;;;5083674;28;19924;-59
2023/06/13 12:37:03;;;;;;;;;;;;;;;;;;5079702;28;20541;-58
2023/06/13 12:39:30;;;;;;;;;;;;;;;;;;5085845;28;19920;-58
2023/06/13 12:41:56;;;;;;;;;;;;;;;;;;5079952;28;19935;-58
2023/06/13 12:44:22;;;;;;;;;;;;;;;;;;5073540;28;19924;-58
2023/06/13 12:46:48;;;;;;;;;;;;;;;;;;5089826;28;19928;-58
2023/06/13 12:49:14;;;;;;;;;;;;;;;;;;5090286;28;20576;-58
2023/06/13 12:51:41;;;;;;;;;;;;;;;;;;5090037;28;20014;-58
2023/06/13 12:54:08;;;;;;;;;;;;;;;;;;5090070;28;19955;-58
2023/06/13 12:56:34;;;;;;;;;;;;;;;;;;5090519;28;19969;-58
2023/06/13 12:59:01;;;;;;;;;;;;;;;;;;5090204;28;19920;-58
2023/06/13 13:01:27;;;;;;;;;;;;;;;;;;5090373;28;19920;-58
2023/06/13 13:03:52;;;;;;;;;;;;;;;;;;5090327;28;19927;-58
2023/06/13 13:06:18;;;;;;;;;;;;;;;;;;5090073;28;19924;-58
2023/06/13 13:08:45;;;;;;;;;;;;;;;;;;5090104;28;19973;-59
2023/06/13 13:11:11;;;;;;;;;;;;;;;;;;5090542;28;20027;-59
2023/06/13 13:13:37;;;;;;;;;;;;;;;;;;5072069;28;19998;-58
2023/06/13 13:16:03;;;;;;;;;;;;;;;;;;5089817;28;19927;-58
2023/06/13 13:18:29;;;;;;;;;;;;;;;;;;5090342;28;19928;-58
2023/06/13 13:20:55;;;;;;;;;;;;;;;;;;5072049;28;19920;-58
2023/06/13 13:23:21;;;;;;;;;;;;;;;;;;5089705;28;20024;-58
2023/06/13 13:25:47;;;;;;;;;;;;;;;;;;5089326;28;19928;-58
2023/06/13 13:28:13;;;;;;;;;;;;;;;;;;5090320;28;19967;-58
2023/06/13 13:30:39;;;;;;;;;;;;;;;;;;5089630;28;19932;-59
2023/06/13 13:33:05;;;;;;;;;;;;;;;;;;5089754;28;20363;-58
2023/06/13 13:35:31;;;;;;;;;;;;;;;;;;5090235;28;19978;-58
2023/06/13 13:37:57;;;;;;;;;;;;;;;;;;5089333;28;20003;-57
2023/06/13 13:40:24;;;;;;;;;;;;;;;;;;5090108;28;19934;-58
2023/06/13 13:42:50;;;;;;;;;;;;;;;;;;5089911;28;19989;-59
2023/06/13 13:45:16;;;;;;;;;;;;;;;;;;5088997;28;19924;-59
2023/06/13 13:47:42;;;;;;;;;;;;;;;;;;5090113;28;19924;-58
2023/06/13 13:50:08;;;;;;;;;;;;;;;;;;5089844;28;19924;-58
2023/06/13 13:52:34;;;;;;;;;;;;;;;;;;5089423;28;20406;-58
2023/06/13 13:55:00;;;;;;;;;;;;;;;;;;5089446;28;20303;-58
2023/06/13 13:57:26;;;;;;;;;;;;;;;;;;5091102;28;19924;-58
2023/06/13 13:59:53;;;;;;;;;;;;;;;;;;5093177;28;19924;-60
2023/06/13 14:02:19;;;;;;;;;;;;;;;;;;5093864;28;19969;-60
2023/06/13 14:04:44;;;;;;;;;;;;;;;;;;5093550;28;19924;-60
2023/06/13 14:07:10;;;;;;;;;;;;;;;;;;5093306;28;19946;-60
2023/06/13 14:09:36;;;;;;;;;;;;;;;;;;5093883;28;19931;-60
2023/06/13 14:12:02;;;;;;;;;;;;;;;;;;5093807;28;19973;-60
2023/06/13 14:14:28;;;;;;;;;;;;;;;;;;5093169;28;20055;-61
2023/06/13 14:16:54;;;;;;;;;;;;;;;;;;5093551;28;19927;-61
2023/06/13 14:19:20;;;;;;;;;;;;;;;;;;5075209;28;19969;-61
2023/06/13 14:21:46;;;;;;;;;;;;;;;;;;5074896;28;19920;-61
2023/06/13 14:24:12;;;;;;;;;;;;;;;;;;5093325;28;19945;-61
2023/06/13 14:26:38;;;;;;;;;;;;;;;;;;5093237;28;20444;-61
2023/06/13 14:29:04;;;;;;;;;;;;;;;;;;5074690;28;19924;-61
2023/06/13 14:31:30;;;;;;;;;;;;;;;;;;5093506;28;20002;-61
2023/06/13 14:33:56;;;;;;;;;;;;;;;;;;5093189;28;19934;-61
2023/06/13 14:36:22;;;;;;;;;;;;;;;;;;5092942;28;19920;-61
2023/06/13 14:38:48;;;;;;;;;;;;;;;;;;5093496;28;19927;-61
2023/06/13 14:41:14;;;;;;;;;;;;;;;;;;5093404;28;19947;-61
2023/06/13 14:43:40;;;;;;;;;;;;;;;;;;5092564;28;19924;-61
2023/06/13 14:46:08;;;;;;;;;;;;;;;;;;5093014;28;19993;-61
2023/06/13 14:48:34;;;;;;;;;;;;;;;;;;5093224;28;19955;-61
2023/06/13 14:51:00;;;;;;;;;;;;;;;;;;5092825;28;19920;-61
2023/06/13 14:53:26;;;;;;;;;;;;;;;;;;5093003;28;19928;-61
2023/06/13 14:55:52;;;;;;;;;;;;;;;;;;5093053;28;20290;-61
2023/06/13 14:58:18;;;;;;;;;;;;;;;;;;5092670;28;19928;-61
2023/06/13 15:00:44;;;;;;;;;;;;;;;;;;5093144;28;19985;-61
2023/06/13 15:03:10;;;;;;;;;;;;;;;;;;5074340;28;20487;-61
2023/06/13 15:05:36;;;;;;;;;;;;;;;;;;5092334;28;19924;-61
2023/06/13 15:08:03;;;;;;;;;;;;;;;;;;5092658;28;19985;-61
2023/06/13 15:10:29;;;;;;;;;;;;;;;;;;5092672;28;20274;-61
2023/06/13 15:12:54;;;;;;;;;;;;;;;;;;5092180;28;19924;-61
2023/06/13 15:15:20;;;;;;;;;;;;;;;;;;5092598;28;19920;-61
2023/06/13 15:17:46;;;;;;;;;;;;;;;;;;5092776;28;19923;-61
2023/06/13 15:20:12;;;;;;;;;;;;;;;;;;5092153;28;20015;-61
2023/06/13 15:22:38;;;;;;;;;;;;;;;;;;5092256;28;19924;-61
2023/06/13 15:25:04;;;;;;;;;;;;;;;;;;5091471;28;19931;-61
2023/06/13 15:27:30;;;;;;;;;;;;;;;;;;5071783;28;20020;-61
2023/06/13 15:29:56;;;;;;;;;;;;;;;;;;5080405;28;20345;-61
2023/06/13 15:32:23;;;;;;;;;;;;;;;;;;5092378;28;19931;-61
2023/06/13 15:34:50;;;;;;;;;;;;;;;;;;5073684;28;19959;-61
2023/06/13 15:37:16;;;;;;;;;;;;;;;;;;5092092;28;19926;-61
2023/06/13 15:39:42;;;;;;;;;;;;;;;;;;5092032;28;20015;-61
2023/06/13 15:42:08;;;;;;;;;;;;;;;;;;5091717;28;20035;-61
2023/06/13 15:44:34;;;;;;;;;;;;;;;;;;5091949;28;19924;-61
2023/06/13 15:47:00;;;;;;;;;;;;;;;;;;5092192;28;19920;-61
2023/06/13 15:49:26;;;;;;;;;;;;;;;;;;5091503;28;19931;-61
2023/06/13 15:51:52;;;;;;;;;;;;;;;;;;5091934;28;19924;-61
2023/06/13 15:54:18;;;;;;;;;;;;;;;;;;5091897;28;19976;-61
2023/06/13 15:56:44;;;;;;;;;;;;;;;;;;5091492;28;19923;-61
2023/06/13 15:59:10;;;;;;;;;;;;;;;;;;5091877;28;19924;-61
2023/06/13 16:01:36;;;;;;;;;;;;;;;;;;5073678;28;20390;-61
2023/06/13 16:04:02;;;;;;;;;;;;;;;;;;5091244;28;19997;-61
2023/06/13 16:06:28;;;;;;;;;;;;;;;;;;5091755;28;20356;-61
2023/06/13 16:08:54;;;;;;;;;;;;;;;;;;5091810;28;19927;-61
2023/06/13 16:11:20;;;;;;;;;;;;;;;;;;5091374;28;20036;-61
2023/06/13 16:13:46;;;;;;;;;;;;;;;;;;5091414;28;20015;-61
2023/06/13 16:16:12;;;;;;;;;;;;;;;;;;5091595;28;20014;-64
2023/06/13 16:18:38;;;;;;;;;;;;;;;;;;5073321;28;19920;-64
2023/06/13 16:21:04;;;;;;;;;;;;;;;;;;5090668;28;19959;-64
2023/06/13 16:23:30;;;;;;;;;;;;;;;;;;5091465;28;19930;-64
2023/06/13 16:25:56;;;;;;;;;;;;;;;;;;5083262;28;19924;-64
2023/06/13 16:28:22;;;;;;;;;;;;;;;;;;5052742;28;19974;-64
2023/06/13 16:30:48;;;;;;;;;;;;;;;;;;5086483;28;19927;-64
2023/06/13 16:33:15;;;;;;;;;;;;;;;;;;5091026;28;19924;-64
2023/06/13 16:35:41;;;;;;;;;;;;;;;;;;5090268;28;19931;-64
2023/06/13 16:38:07;;;;;;;;;;;;;;;;;;5091196;28;19920;-64